Time;durP1;ratioP1;P1;durP2;ratioP2;P2;SDS_P1;SDS_P2;PMS_P1;PMS_P2;Temp;Humidity;BMP_temperature;BMP_pressure;BME280_temperature;BME280_humidity;BME280_pressure;Samples;Min_cycle;Max_cycle;Signal;HPM_P1;HPM_P2
2023/07/30 00:00:53;;;;;;;7.05;2.90;;;;;;;-140.66;100.00;55571.53;5095341;28;20165;-75
2023/07/30 00:03:39;;;;;;;5.30;2.70;;;;;;;-140.66;100.00;55571.53;5080569;28;20620;-76
2023/07/30 00:06:25;;;;;;;5.97;2.72;;;;;;;-140.66;100.00;55571.53;5098923;28;20034;-75
2023/07/30 00:09:10;;;;;;;5.68;2.70;;;;;;;-140.66;100.00;55571.53;5107007;28;20028;-72
2023/07/30 00:11:56;;;;;;;4.20;2.50;;;;;;;-140.66;100.00;55571.53;5090501;28;20024;-75
2023/07/30 00:14:43;;;;;;;4.85;2.50;;;;;;;-140.66;100.00;55571.53;5090317;28;20059;-74
2023/07/30 00:17:28;;;;;;;4.65;2.78;;;;;;;-140.66;100.00;55571.53;5094641;28;20039;-75
2023/07/30 00:20:14;;;;;;;4.15;2.80;;;;;;;-140.66;100.00;55571.53;5103014;28;20116;-76
2023/07/30 00:23:00;;;;;;;4.78;2.58;;;;;;;-140.66;100.00;55571.53;5100330;28;20023;-75
2023/07/30 00:25:46;;;;;;;3.67;2.50;;;;;;;-140.66;100.00;55571.53;5100240;28;20452;-77
2023/07/30 00:28:31;;;;;;;4.50;2.70;;;;;;;-140.66;100.00;55571.53;5115413;28;20028;-76
2023/07/30 00:31:17;;;;;;;5.00;3.03;;;;;;;-140.66;100.00;55571.53;5113977;28;20035;-75
2023/07/30 00:34:03;;;;;;;3.08;2.45;;;;;;;-140.66;100.00;55571.53;5099981;28;20448;-76
2023/07/30 00:36:48;;;;;;;5.75;2.80;;;;;;;-140.66;100.00;55571.53;5118110;28;20019;-75
2023/07/30 00:39:35;;;;;;;6.20;2.78;;;;;;;-140.66;100.00;55571.53;5104691;28;20108;-75
2023/07/30 00:42:20;;;;;;;6.40;2.72;;;;;;;-140.66;100.00;55571.53;5104567;28;20038;-75
2023/07/30 00:45:07;;;;;;;5.80;2.80;;;;;;;-140.66;100.00;55571.53;5103424;28;20118;-75
2023/07/30 00:47:53;;;;;;;5.90;2.80;;;;;;;-140.66;100.00;55571.53;5117779;28;20066;-76
2023/07/30 00:50:40;;;;;;;4.70;3.15;;;;;;;-140.66;100.00;55571.53;5102793;28;20027;-76
2023/07/30 00:53:27;;;;;;;3.25;2.40;;;;;;;-140.66;100.00;55571.53;5118172;28;20027;-76
2023/07/30 00:56:14;;;;;;;3.88;2.80;;;;;;;-140.66;100.00;55571.53;5118132;28;20460;-76
2023/07/30 00:59:00;;;;;;;4.32;2.83;;;;;;;-140.66;100.00;55571.53;5117994;28;20036;-75
2023/07/30 01:01:47;;;;;;;5.72;2.80;;;;;;;-140.66;100.00;55571.53;5118040;28;20037;-75
2023/07/30 01:04:33;;;;;;;3.05;2.53;;;;;;;-140.66;100.00;55571.53;5117439;28;20032;-75
2023/07/30 01:07:18;;;;;;;2.88;2.45;;;;;;;-140.66;100.00;55571.53;5118196;28;20023;-75
2023/07/30 01:10:05;;;;;;;5.18;3.38;;;;;;;-140.66;100.00;55571.53;5118119;28;20023;-75
2023/07/30 01:12:51;;;;;;;5.80;3.90;;;;;;;-140.66;100.00;55571.53;5103422;28;20129;-75
2023/07/30 01:15:37;;;;;;;4.88;3.30;;;;;;;-140.66;100.00;55571.53;5102847;28;20020;-76
2023/07/30 01:18:23;;;;;;;8.07;3.28;;;;;;;-140.66;100.00;55571.53;5117942;28;20027;-76
2023/07/30 01:21:09;;;;;;;7.18;3.13;;;;;;;-140.66;100.00;55571.53;5117080;28;20054;-75
2023/07/30 01:23:54;;;;;;;5.32;3.00;;;;;;;-140.66;100.00;55571.53;5102562;28;20046;-76
2023/07/30 01:26:47;;;;;;;4.95;2.90;;;;;;;-140.66;100.00;55571.53;5117167;28;20035;-76
2023/07/30 01:29:45;;;;;;;3.67;2.83;;;;;;;-140.66;100.00;55571.53;5117961;28;20024;-76
2023/07/30 01:32:32;;;;;;;4.40;2.95;;;;;;;-140.66;100.00;55571.53;5117274;28;20371;-75
2023/07/30 01:35:22;;;;;;;3.47;2.80;;;;;;;-140.66;100.00;55571.53;5117513;28;20031;-76
2023/07/30 01:38:08;;;;;;;3.42;2.90;;;;;;;-140.66;100.00;55571.53;5102734;28;20023;-75
2023/07/30 01:40:54;;;;;;;6.70;3.05;;;;;;;-140.66;100.00;55571.53;5117936;28;20345;-76
2023/07/30 01:43:40;;;;;;;3.78;2.88;;;;;;;-140.66;100.00;55571.53;5103376;28;20027;-76
2023/07/30 01:46:26;;;;;;;3.22;2.70;;;;;;;-140.66;100.00;55571.53;5102311;28;20037;-76
2023/07/30 01:49:11;;;;;;;4.93;2.90;;;;;;;-140.66;100.00;55571.53;5116443;28;20118;-75
2023/07/30 01:51:57;;;;;;;3.13;2.47;;;;;;;-140.66;100.00;55571.53;5102831;28;20065;-75
2023/07/30 01:54:43;;;;;;;5.50;3.10;;;;;;;-140.66;100.00;55571.53;5101956;28;20110;-76
2023/07/30 01:57:28;;;;;;;5.40;2.92;;;;;;;-140.66;100.00;55571.53;5102718;28;20027;-75
2023/07/30 02:00:14;;;;;;;4.55;2.58;;;;;;;-140.66;100.00;55571.53;5102704;28;20027;-76
2023/07/30 02:03:00;;;;;;;3.70;2.70;;;;;;;-140.66;100.00;55571.53;5102053;28;20027;-76
2023/07/30 02:05:46;;;;;;;3.90;2.72;;;;;;;-140.66;100.00;55571.53;5115498;28;20154;-76
2023/07/30 02:08:32;;;;;;;3.65;2.50;;;;;;;-140.66;100.00;55571.53;5116052;28;20024;-76
2023/07/30 02:11:17;;;;;;;4.63;2.70;;;;;;;-140.66;100.00;55571.53;5116940;28;20120;-76
2023/07/30 02:14:03;;;;;;;3.05;2.75;;;;;;;-140.66;100.00;55571.53;5117774;28;20019;-75
2023/07/30 02:16:49;;;;;;;3.83;2.80;;;;;;;-140.66;100.00;55571.53;5116772;28;20111;-75
2023/07/30 02:19:34;;;;;;;3.40;2.83;;;;;;;-140.66;100.00;55571.53;5116711;28;20042;-75
2023/07/30 02:22:20;;;;;;;4.13;2.80;;;;;;;-140.66;100.00;55571.53;5132396;27;20043;-75
2023/07/30 02:25:06;;;;;;;3.53;3.20;;;;;;;-140.66;100.00;55571.53;5118882;28;20027;-75
2023/07/30 02:27:52;;;;;;;4.80;3.05;;;;;;;-140.66;100.00;55571.53;5116436;28;20352;-75
2023/07/30 02:30:38;;;;;;;5.00;3.13;;;;;;;-140.66;100.00;55571.53;5116635;28;20117;-75
2023/07/30 02:33:23;;;;;;;5.57;2.95;;;;;;;-140.66;100.00;55571.53;5101855;28;20028;-75
2023/07/30 02:36:09;;;;;;;9.40;3.25;;;;;;;-140.66;100.00;55571.53;5116097;28;20027;-75
2023/07/30 02:38:55;;;;;;;4.53;2.97;;;;;;;-140.66;100.00;55571.53;5103106;28;20085;-75
2023/07/30 02:41:40;;;;;;;6.57;3.17;;;;;;;-140.66;100.00;55571.53;5100539;28;20093;-74
2023/07/30 02:44:26;;;;;;;5.00;3.28;;;;;;;-140.66;100.00;55571.53;5116329;28;20066;-75
2023/07/30 02:47:12;;;;;;;2.92;2.40;;;;;;;-140.66;100.00;55571.53;5103301;28;20472;-75
2023/07/30 02:49:58;;;;;;;3.63;2.80;;;;;;;-140.66;100.00;55571.53;5116404;28;20444;-75
2023/07/30 02:52:43;;;;;;;6.43;3.08;;;;;;;-140.66;100.00;55571.53;5102767;28;20020;-75
2023/07/30 02:55:29;;;;;;;5.22;3.28;;;;;;;-140.66;100.00;55571.53;5101999;28;20123;-75
2023/07/30 02:58:15;;;;;;;5.78;3.20;;;;;;;-140.66;100.00;55571.53;5134181;28;20019;-74
2023/07/30 03:01:08;;;;;;;7.75;3.33;;;;;;;-140.66;100.00;55571.53;5113160;28;20031;-75
2023/07/30 03:03:53;;;;;;;5.95;3.10;;;;;;;-140.66;100.00;55571.53;5118094;28;20042;-75
2023/07/30 03:06:39;;;;;;;4.38;3.28;;;;;;;-140.66;100.00;55571.53;5100938;28;20114;-75
2023/07/30 03:09:25;;;;;;;4.90;3.28;;;;;;;-140.66;100.00;55571.53;5115028;28;20027;-75
2023/07/30 03:12:10;;;;;;;3.15;2.72;;;;;;;-140.66;100.00;55571.53;5115311;28;20023;-75
2023/07/30 03:14:56;;;;;;;4.63;3.25;;;;;;;-140.66;100.00;55571.53;5101178;28;20035;-74
2023/07/30 03:17:42;;;;;;;5.30;3.28;;;;;;;-140.66;100.00;55571.53;5100920;28;20031;-75
2023/07/30 03:20:34;;;;;;;5.50;3.03;;;;;;;23.79;100.00;100673.84;5072350;28;20379;-75
2023/07/30 03:23:20;;;;;;;5.70;3.45;;;;;;;24.15;100.00;100674.69;5072443;28;20032;-74
2023/07/30 03:26:05;;;;;;;4.30;3.70;;;;;;;24.15;100.00;100679.22;5071444;28;20028;-74
2023/07/30 03:28:51;;;;;;;3.53;3.20;;;;;;;24.07;100.00;100679.75;5071435;28;20120;-75
2023/07/30 03:31:37;;;;;;;4.32;3.08;;;;;;;23.91;100.00;100672.94;5071263;28;20047;-74
2023/07/30 03:34:23;;;;;;;3.90;3.10;;;;;;;23.75;100.00;100669.69;5071627;28;20056;-74
2023/07/30 03:37:08;;;;;;;5.40;3.20;;;;;;;23.61;100.00;100684.03;5096848;28;20020;-75
2023/07/30 03:39:54;;;;;;;5.40;3.17;;;;;;;24.04;100.00;100682.69;5112499;28;20024;-75
2023/07/30 03:42:40;;;;;;;6.15;3.50;;;;;;;23.80;100.00;100679.09;5112579;28;20111;-75
2023/07/30 03:45:26;;;;;;;6.03;3.40;;;;;;;23.79;100.00;100689.91;5111593;28;20028;-75
2023/07/30 03:48:11;;;;;;;7.47;3.40;;;;;;;24.05;100.00;100689.75;5111558;28;20032;-73
2023/07/30 03:50:57;;;;;;;5.93;3.47;;;;;;;24.07;100.00;100690.47;5112011;28;20027;-74
2023/07/30 03:53:43;;;;;;;6.95;3.28;;;;;;;24.25;100.00;100699.84;5111527;28;20031;-74
2023/07/30 03:56:29;;;;;;;7.50;3.42;;;;;;;24.06;100.00;100701.31;5111626;28;20448;-74
2023/07/30 03:59:14;;;;;;;6.55;3.22;;;;;;;24.24;100.00;100700.81;5111597;28;20032;-75
2023/07/30 04:02:00;;;;;;;6.35;3.50;;;;;;;24.17;100.00;100696.00;5111636;28;20028;-74
2023/07/30 04:04:48;;;;;;;4.53;3.10;;;;;;;24.40;100.00;100695.16;5112669;28;20052;-74
2023/07/30 04:07:34;;;;;;;5.82;3.63;;;;;;;24.69;100.00;100699.22;5111808;28;20069;-75
2023/07/30 04:10:19;;;;;;;5.57;3.40;;;;;;;24.45;100.00;100704.56;5111133;28;20090;-75
2023/07/30 04:13:07;;;;;;;5.32;3.22;;;;;;;24.77;100.00;100707.53;5111425;28;20036;-76
2023/07/30 04:15:53;;;;;;;5.45;3.35;;;;;;;24.64;100.00;100712.97;5097526;28;20042;-75
2023/07/30 04:18:39;;;;;;;6.28;3.30;;;;;;;24.67;100.00;100709.22;5111742;28;20048;-75
2023/07/30 04:21:24;;;;;;;5.43;3.25;;;;;;;24.37;100.00;100715.00;5096002;28;20488;-76
2023/07/30 04:24:10;;;;;;;5.65;3.10;;;;;;;24.72;100.00;100712.38;5111227;28;20032;-76
2023/07/30 04:26:56;;;;;;;5.82;3.38;;;;;;;24.51;100.00;100714.81;5109933;28;20028;-75
2023/07/30 04:29:42;;;;;;;6.00;3.35;;;;;;;24.93;100.00;100710.75;5110793;28;20428;-75
2023/07/30 04:32:27;;;;;;;8.40;3.55;;;;;;;24.59;100.00;100717.78;5097748;28;20039;-75
2023/07/30 04:35:13;;;;;;;3.80;3.38;;;;;;;24.87;100.00;100721.94;5096612;28;20028;-75
2023/07/30 04:37:59;;;;;;;4.50;3.22;;;;;;;24.89;100.00;100718.19;5096847;28;20418;-74
2023/07/30 04:40:45;;;;;;;4.72;3.60;;;;;;;24.67;100.00;100719.94;5096982;28;20027;-74
2023/07/30 04:43:30;;;;;;;6.38;3.63;;;;;;;24.79;100.00;100714.47;5082510;28;20107;-74
2023/07/30 04:46:16;;;;;;;3.80;3.30;;;;;;;24.02;100.00;100719.41;5083618;28;20032;-74
2023/07/30 04:49:04;;;;;;;4.45;3.20;;;;;;;24.60;100.00;100724.88;5097201;28;20039;-74
2023/07/30 04:51:49;;;;;;;6.30;3.42;;;;;;;24.85;100.00;100727.44;5097371;28;20082;-74
2023/07/30 04:54:36;;;;;;;6.15;3.47;;;;;;;25.03;100.00;100720.63;5097158;28;20345;-74
2023/07/30 04:57:22;;;;;;;4.45;3.40;;;;;;;24.63;100.00;100724.66;5082156;28;20024;-75
2023/07/30 05:00:08;;;;;;;4.38;3.63;;;;;;;24.85;100.00;100721.19;5096642;28;20020;-75
2023/07/30 05:02:54;;;;;;;4.72;3.55;;;;;;;24.74;100.00;100724.69;5082554;28;20028;-75
2023/07/30 05:05:40;;;;;;;7.97;3.60;;;;;;;25.01;100.00;100732.47;5082806;28;20040;-76
2023/07/30 05:08:26;;;;;;;5.25;3.47;;;;;;;24.83;100.00;100733.88;5096338;28;20024;-75
2023/07/30 05:11:11;;;;;;;7.13;3.60;;;;;;;24.59;100.00;100735.69;5107057;28;20024;-74
2023/07/30 05:13:57;;;;;;;4.97;3.65;;;;;;;24.41;100.00;100743.28;5110145;28;20032;-75
2023/07/30 05:16:43;;;;;;;7.18;3.83;;;;;;;25.05;100.00;100740.16;5090293;28;20024;-77
2023/07/30 05:19:29;;;;;;;3.72;3.30;;;;;;;25.14;100.00;100728.72;5096118;28;20087;-76
2023/07/30 05:22:15;;;;;;;4.25;3.83;;;;;;;25.18;100.00;100740.91;5093459;28;20024;-76
2023/07/30 05:25:01;;;;;;;5.93;3.72;;;;;;;25.14;100.00;100733.22;5097322;28;20043;-76
2023/07/30 05:27:46;;;;;;;5.00;3.70;;;;;;;25.17;100.00;100739.22;5096380;28;20032;-75
2023/07/30 05:30:32;;;;;;;7.07;3.70;;;;;;;25.22;100.00;100736.16;5112733;28;20016;-74
2023/07/30 05:33:18;;;;;;;7.75;3.80;;;;;;;25.07;100.00;100742.72;5101385;28;20024;-74
2023/07/30 05:36:04;;;;;;;5.55;3.95;;;;;;;25.42;100.00;100741.72;5096351;28;20024;-74
2023/07/30 05:38:49;;;;;;;6.78;3.85;;;;;;;24.95;100.00;100738.31;5096213;28;20503;-74
2023/07/30 05:41:35;;;;;;;7.00;4.00;;;;;;;25.13;100.00;100742.25;5095450;28;20103;-75
2023/07/30 05:44:21;;;;;;;5.25;3.72;;;;;;;25.34;100.00;100736.09;5096149;28;20027;-74
2023/07/30 05:47:06;;;;;;;5.38;3.88;;;;;;;25.65;100.00;100738.09;5096211;28;20043;-75
2023/07/30 05:49:52;;;;;;;5.72;3.40;;;;;;;24.89;100.00;100741.44;5105670;28;20028;-75
2023/07/30 05:52:38;;;;;;;5.00;3.50;;;;;;;25.56;100.00;100743.34;5099967;28;20039;-75
2023/07/30 05:55:24;;;;;;;4.75;3.95;;;;;;;25.64;100.00;100747.09;5082693;28;20173;-77
2023/07/30 05:58:09;;;;;;;3.72;3.30;;;;;;;25.90;100.00;100745.03;5097668;28;20023;-76
2023/07/30 06:00:56;;;;;;;4.78;3.72;;;;;;;25.74;100.00;100739.19;5107627;28;20115;-73
2023/07/30 06:03:42;;;;;;;4.30;3.90;;;;;;;26.05;100.00;100746.53;5109564;28;20096;-74
2023/07/30 06:06:29;;;;;;;4.85;3.90;;;;;;;26.38;100.00;100743.78;5110055;28;20023;-75
2023/07/30 06:09:14;;;;;;;5.93;4.00;;;;;;;26.40;100.00;100736.44;5107426;28;20024;-76
2023/07/30 06:12:00;;;;;;;6.63;3.78;;;;;;;26.62;100.00;100745.31;5106294;28;20034;-75
2023/07/30 06:14:46;;;;;;;4.72;3.97;;;;;;;25.93;100.00;100737.59;5108214;28;20024;-75
2023/07/30 06:17:32;;;;;;;5.40;4.25;;;;;;;25.82;100.00;100736.75;5101766;28;20020;-74
2023/07/30 06:20:18;;;;;;;4.97;3.70;;;;;;;26.19;100.00;100740.88;5101189;28;20054;-75
2023/07/30 06:23:03;;;;;;;6.03;4.30;;;;;;;26.57;100.00;100736.72;5106912;28;20023;-76
2023/07/30 06:25:49;;;;;;;4.43;3.80;;;;;;;26.92;100.00;100741.88;5106013;28;20024;-79
2023/07/30 06:28:35;;;;;;;4.93;3.63;;;;;;;26.76;99.90;100747.69;5107439;28;20027;-74
2023/07/30 06:31:21;;;;;;;4.45;3.60;;;;;;;26.88;100.00;100743.97;5106556;28;20027;-74
2023/07/30 06:34:06;;;;;;;4.82;3.75;;;;;;;27.00;98.68;100742.06;5106367;28;20364;-74
2023/07/30 06:36:52;;;;;;;4.70;3.78;;;;;;;26.91;100.00;100734.78;5109264;28;20024;-73
2023/07/30 06:39:38;;;;;;;11.10;3.88;;;;;;;27.01;100.00;100741.13;5109687;28;20039;-74
2023/07/30 06:42:23;;;;;;;8.32;4.22;;;;;;;26.82;98.68;100736.44;5108541;28;20028;-73
2023/07/30 06:45:09;;;;;;;6.22;3.75;;;;;;;27.34;98.18;100738.25;5107426;28;20024;-75
2023/07/30 06:47:55;;;;;;;6.13;3.83;;;;;;;27.46;98.18;100731.81;5105542;28;20036;-75
2023/07/30 06:50:41;;;;;;;5.95;4.13;;;;;;;27.74;98.06;100731.09;5106838;28;20019;-74
2023/07/30 06:53:27;;;;;;;6.07;4.20;;;;;;;26.59;100.00;100733.97;5100088;28;20024;-74
2023/07/30 06:56:13;;;;;;;5.32;4.00;;;;;;;27.42;100.00;100733.06;5098740;28;20028;-75
2023/07/30 06:58:58;;;;;;;5.05;4.32;;;;;;;27.09;100.00;100741.31;5096378;28;20032;-74
2023/07/30 07:01:44;;;;;;;6.78;4.32;;;;;;;27.20;100.00;100727.81;5075141;28;20357;-75
2023/07/30 07:04:30;;;;;;;7.05;4.28;;;;;;;27.73;100.00;100718.63;5096889;28;20361;-75
2023/07/30 07:07:16;;;;;;;5.05;3.88;;;;;;;27.96;100.00;100713.94;5096247;28;20126;-74
2023/07/30 07:10:01;;;;;;;5.32;4.05;;;;;;;27.68;100.00;100711.94;5100759;28;20107;-75
2023/07/30 07:12:47;;;;;;;5.45;4.18;;;;;;;28.08;97.34;100716.34;5101982;28;20024;-75
2023/07/30 07:15:33;;;;;;;5.70;3.95;;;;;;;27.48;100.00;100713.66;5102122;28;20060;-76
2023/07/30 07:18:19;;;;;;;4.70;3.85;;;;;;;28.28;98.25;100714.56;5089262;28;20039;-75
2023/07/30 07:21:04;;;;;;;5.07;3.72;;;;;;;27.82;95.71;100712.44;5101075;28;20368;-75
2023/07/30 07:23:50;;;;;;;5.20;3.90;;;;;;;27.76;95.47;100706.72;5098673;28;20089;-75
2023/07/30 07:26:36;;;;;;;4.38;3.88;;;;;;;28.59;91.51;100708.94;5097810;28;20397;-75
2023/07/30 07:29:21;;;;;;;4.53;4.10;;;;;;;28.94;87.77;100703.84;5094625;28;20027;-75
2023/07/30 07:32:07;;;;;;;5.38;4.00;;;;;;;28.83;86.87;100703.97;5094661;28;20387;-75
2023/07/30 07:34:53;;;;;;;4.20;3.80;;;;;;;29.55;83.95;100696.19;5101658;28;20032;-75
2023/07/30 07:37:39;;;;;;;4.72;3.55;;;;;;;29.50;82.07;100698.47;5097175;28;20338;-74
2023/07/30 07:40:24;;;;;;;8.10;4.03;;;;;;;29.11;84.66;100694.16;5102420;28;20122;-75
2023/07/30 07:43:10;;;;;;;4.20;3.67;;;;;;;29.77;79.39;100693.97;5113013;28;20018;-74
2023/07/30 07:45:56;;;;;;;4.35;3.50;;;;;;;30.06;77.43;100697.38;5103872;28;20111;-74
2023/07/30 07:48:43;;;;;;;5.65;3.80;;;;;;;30.27;76.29;100699.84;5084219;28;20139;-74
2023/07/30 07:51:29;;;;;;;4.35;3.63;;;;;;;30.84;74.13;100694.00;5100243;28;20039;-75
2023/07/30 07:54:14;;;;;;;5.80;3.85;;;;;;;30.76;73.17;100700.19;5099649;28;20031;-75
2023/07/30 07:57:00;;;;;;;4.13;3.50;;;;;;;30.91;69.15;100695.91;5098911;28;20020;-75
2023/07/30 07:59:46;;;;;;;4.70;3.63;;;;;;;30.85;67.74;100695.69;5100032;28;20025;-75
2023/07/30 08:02:32;;;;;;;8.30;3.83;;;;;;;31.14;66.10;100691.69;5091580;28;20356;-74
2023/07/30 08:05:19;;;;;;;6.53;3.95;;;;;;;31.01;64.94;100685.84;5105962;28;20020;-75
2023/07/30 08:08:05;;;;;;;5.55;4.05;;;;;;;31.31;64.78;100684.56;5092494;28;20060;-75
2023/07/30 08:10:51;;;;;;;6.10;4.40;;;;;;;31.89;63.58;100682.88;5109588;28;20134;-75
2023/07/30 08:13:36;;;;;;;7.15;4.70;;;;;;;31.92;63.16;100678.97;5106755;28;20036;-76
2023/07/30 08:16:22;;;;;;;7.22;5.88;;;;;;;31.84;65.94;100678.94;5105252;28;20090;-76
2023/07/30 08:19:08;;;;;;;6.20;4.25;;;;;;;32.08;65.92;100679.88;5103401;28;20044;-76
2023/07/30 08:21:56;;;;;;;7.68;4.25;;;;;;;32.28;63.76;100683.16;5078400;28;20043;-75
2023/07/30 08:24:42;;;;;;;4.43;3.90;;;;;;;32.42;61.66;100677.13;5106167;28;20032;-78
2023/07/30 08:27:27;;;;;;;4.57;4.10;;;;;;;33.23;59.16;100678.84;5106078;28;20024;-75
2023/07/30 08:30:13;;;;;;;4.70;4.15;;;;;;;32.92;60.76;100676.00;5104551;28;20024;-76
2023/07/30 08:32:59;;;;;;;7.82;4.20;;;;;;;33.38;59.78;100675.25;5098894;28;20024;-75
2023/07/30 08:35:45;;;;;;;5.45;4.00;;;;;;;33.41;60.15;100680.34;5098634;28;20141;-75
2023/07/30 08:38:30;;;;;;;9.95;4.18;;;;;;;32.48;60.55;100676.44;5084091;28;20031;-75
2023/07/30 08:41:16;;;;;;;4.53;3.53;;;;;;;33.17;59.36;100668.66;5083840;28;20066;-75
2023/07/30 08:44:02;;;;;;;9.15;4.00;;;;;;;33.84;57.24;100668.16;5084839;28;20034;-77
2023/07/30 08:46:48;;;;;;;7.53;5.53;;;;;;;33.86;55.49;100666.97;5096843;28;20062;-75
2023/07/30 08:49:34;;;;;;;4.43;3.83;;;;;;;34.20;54.67;100666.63;5082722;28;20024;-75
2023/07/30 08:52:22;;;;;;;6.78;4.15;;;;;;;34.02;55.25;100663.31;5082712;28;20039;-75
2023/07/30 08:55:08;;;;;;;5.20;4.00;;;;;;;34.02;54.00;100666.03;5098420;28;20058;-77
2023/07/30 08:57:56;;;;;;;6.53;4.32;;;;;;;34.57;53.43;100666.72;5096474;28;20032;-76
2023/07/30 09:00:42;;;;;;;4.18;3.60;;;;;;;34.65;51.55;100663.94;5096651;28;20035;-75
2023/07/30 09:03:30;;;;;;;7.65;4.10;;;;;;;35.22;50.74;100656.13;5097653;28;20396;-74
2023/07/30 09:06:16;;;;;;;7.15;4.13;;;;;;;34.64;49.46;100659.53;5097243;28;20032;-76
2023/07/30 09:09:03;;;;;;;4.40;3.88;;;;;;;35.01;44.89;100654.13;5081417;28;20085;-75
2023/07/30 09:11:53;;;;;;;5.13;4.00;;;;;;;34.93;45.94;100663.22;5081077;28;20028;-75
2023/07/30 09:14:40;;;;;;;6.15;3.92;;;;;;;34.99;44.92;100658.88;5097006;28;20360;-76
2023/07/30 09:17:26;;;;;;;5.90;3.80;;;;;;;35.34;44.17;100652.78;5097343;28;20024;-76
2023/07/30 09:20:11;;;;;;;4.88;3.47;;;;;;;34.91;39.99;100639.91;5081676;28;20048;-76
2023/07/30 09:22:58;;;;;;;7.60;3.65;;;;;;;35.24;41.95;100635.84;5097004;28;20039;-76
2023/07/30 09:25:47;;;;;;;5.25;3.20;;;;;;;35.10;38.49;100634.78;5096436;28;20106;-76
2023/07/30 09:28:33;;;;;;;5.68;3.10;;;;;;;35.49;38.68;100636.41;5096085;28;20032;-76
2023/07/30 09:31:19;;;;;;;14.13;3.88;;;;;;;35.24;36.90;100620.31;5083385;28;20046;-76
2023/07/30 09:34:05;;;;;;;3.83;3.30;;;;;;;35.08;38.39;100634.13;5096696;28;20031;-75
2023/07/30 09:36:52;;;;;;;5.63;3.15;;;;;;;35.46;36.90;100620.44;5082395;28;20036;-75
2023/07/30 09:39:37;;;;;;;3.75;3.13;;;;;;;35.05;36.67;100618.16;5082586;28;20035;-75
2023/07/30 09:42:27;;;;;;;5.18;2.97;;;;;;;35.59;35.49;100623.38;5096723;28;20035;-76
2023/07/30 09:45:24;;;;;;;5.85;3.33;;;;;;;35.68;34.15;100619.50;5082416;28;20035;-75
2023/07/30 09:48:09;;;;;;;11.27;3.38;;;;;;;35.18;34.88;100612.06;5096557;28;20464;-74
2023/07/30 09:50:58;;;;;;;4.32;3.33;;;;;;;35.46;34.29;100615.84;5095676;28;20038;-75
2023/07/30 09:53:44;;;;;;;5.47;3.30;;;;;;;35.52;33.83;100612.38;5096211;28;20348;-76
2023/07/30 09:56:30;;;;;;;4.93;3.22;;;;;;;35.42;33.46;100606.34;5082295;28;20024;-77
2023/07/30 09:59:15;;;;;;;5.88;3.25;;;;;;;35.84;34.11;100603.81;5081204;28;20049;-77
2023/07/30 10:02:02;;;;;;;5.28;3.35;;;;;;;35.61;34.80;100605.78;5095973;28;20027;-76
2023/07/30 10:04:50;;;;;;;5.85;3.55;;;;;;;35.68;34.74;100604.00;5095996;28;20028;-75
2023/07/30 10:07:40;;;;;;;8.60;3.53;;;;;;;35.35;34.08;100589.06;5080885;28;20027;-76
2023/07/30 10:10:28;;;;;;;8.50;3.80;;;;;;;35.40;34.33;100589.34;5096728;28;20075;-77
2023/07/30 10:13:16;;;;;;;3.45;2.90;;;;;;;34.82;33.29;100592.00;5096949;28;20027;-78
2023/07/30 10:16:02;;;;;;;3.88;3.45;;;;;;;34.80;34.93;100594.09;5102624;28;20020;-73
2023/07/30 10:18:56;;;;;;;5.18;3.17;;;;;;;35.32;33.27;100592.19;5090308;28;20051;-76
2023/07/30 10:21:42;;;;;;;3.90;3.15;;;;;;;35.15;33.41;100580.59;5080846;28;20031;-75
2023/07/30 10:24:28;;;;;;;4.85;3.05;;;;;;;35.17;33.25;100577.69;5094974;28;20031;-76
2023/07/30 10:27:23;;;;;;;5.13;3.42;;;;;;;35.22;33.48;100564.31;5079597;28;20028;-76
2023/07/30 10:30:10;;;;;;;7.03;3.20;;;;;;;35.15;33.60;100560.66;5095403;28;20528;-76
2023/07/30 10:32:57;;;;;;;5.90;3.00;;;;;;;35.03;34.42;100563.00;5095168;28;20468;-76
2023/07/30 10:35:48;;;;;;;5.10;3.20;;;;;;;35.39;34.29;100565.84;5083452;28;20024;-76
2023/07/30 10:38:34;;;;;;;3.42;2.95;;;;;;;35.40;33.96;100556.66;5095832;28;20024;-76
2023/07/30 10:41:21;;;;;;;4.35;3.03;;;;;;;35.56;32.69;100569.22;5080249;28;20028;-76
2023/07/30 10:44:07;;;;;;;4.68;3.08;;;;;;;35.80;32.22;100561.59;5095108;28;20089;-76
2023/07/30 10:46:57;;;;;;;7.03;3.10;;;;;;;35.67;32.89;100557.81;5094722;28;20038;-76
2023/07/30 10:49:46;;;;;;;7.05;3.08;;;;;;;35.67;32.18;100560.56;5095545;28;20073;-76
2023/07/30 10:52:32;;;;;;;3.67;3.28;;;;;;;35.83;32.47;100555.72;5094691;28;20028;-76
2023/07/30 10:55:17;;;;;;;3.47;3.17;;;;;;;35.62;32.43;100552.06;5095181;28;20059;-76
2023/07/30 10:58:04;;;;;;;6.45;2.80;;;;;;;35.64;28.99;100545.44;5079182;28;20031;-77
2023/07/30 11:00:50;;;;;;;4.80;2.70;;;;;;;35.28;28.95;100550.00;5094538;28;20448;-76
2023/07/30 11:03:38;;;;;;;7.43;3.08;;;;;;;35.27;29.72;100539.25;5080477;28;20039;-75
2023/07/30 11:06:26;;;;;;;6.05;3.33;;;;;;;36.07;29.84;100544.44;5094287;28;20030;-76
2023/07/30 11:09:25;;;;;;;6.60;3.40;;;;;;;36.22;30.45;100549.81;5094883;28;20040;-76
2023/07/30 11:12:10;;;;;;;4.20;3.80;;;;;;;35.32;30.09;100540.41;5093887;28;20020;-77
2023/07/30 11:15:01;;;;;;;6.07;3.80;;;;;;;35.89;29.75;100535.88;5094364;28;20028;-75
2023/07/30 11:17:47;;;;;;;4.22;3.80;;;;;;;35.99;29.91;100536.38;5079993;28;20024;-77
2023/07/30 11:20:33;;;;;;;4.50;4.10;;;;;;;35.73;30.15;100527.91;5095238;28;20109;-76
2023/07/30 11:23:19;;;;;;;4.80;4.30;;;;;;;36.25;30.33;100527.66;5079819;28;20028;-77
2023/07/30 11:26:06;;;;;;;8.85;4.22;;;;;;;36.46;29.83;100527.63;5079635;28;20028;-75
2023/07/30 11:28:52;;;;;;;5.82;4.47;;;;;;;36.57;30.06;100530.66;5078221;28;20031;-77
2023/07/30 11:31:38;;;;;;;7.45;4.10;;;;;;;36.73;29.85;100522.22;5094194;28;20107;-76
2023/07/30 11:34:25;;;;;;;6.70;4.10;;;;;;;36.87;30.03;100525.84;5085255;28;20368;-75
2023/07/30 11:37:11;;;;;;;4.85;4.18;;;;;;;36.80;29.02;100509.41;5094259;28;20028;-76
2023/07/30 11:39:57;;;;;;;8.95;4.25;;;;;;;36.69;29.99;100507.25;5093879;28;20056;-76
2023/07/30 11:42:43;;;;;;;4.38;3.60;;;;;;;37.00;29.83;100513.13;5099153;28;20107;-75
2023/07/30 11:45:29;;;;;;;4.38;3.38;;;;;;;37.03;29.02;100501.78;5098277;28;20024;-76
2023/07/30 11:48:14;;;;;;;4.22;3.75;;;;;;;36.00;29.85;100505.34;5099087;28;20060;-76
2023/07/30 11:51:00;;;;;;;4.35;3.95;;;;;;;36.43;30.00;100501.56;5084093;28;20024;-76
2023/07/30 11:53:50;;;;;;;10.50;3.80;;;;;;;36.30;28.99;100489.69;5098407;28;20515;-76
2023/07/30 11:56:36;;;;;;;6.97;3.70;;;;;;;37.11;28.30;100490.69;5098454;28;20035;-76
2023/07/30 11:59:21;;;;;;;5.60;3.30;;;;;;;36.95;29.11;100485.56;5097993;28;20024;-76
2023/07/30 12:02:07;;;;;;;3.97;3.38;;;;;;;36.93;29.26;100481.34;5083758;28;20039;-76
2023/07/30 12:04:53;;;;;;;4.15;3.63;;;;;;;37.44;29.08;100477.19;5097615;28;20028;-76
2023/07/30 12:07:41;;;;;;;4.30;3.50;;;;;;;36.97;29.38;100475.28;5083508;28;20048;-75
2023/07/30 12:10:26;;;;;;;6.05;3.40;;;;;;;36.97;28.69;100468.97;5097807;28;20489;-76
2023/07/30 12:13:17;;;;;;;4.03;3.63;;;;;;;36.69;29.74;100458.09;5083557;28;20457;-77
2023/07/30 12:16:02;;;;;;;7.35;3.83;;;;;;;37.19;28.35;100463.22;5083666;28;20032;-76
2023/07/30 12:18:48;;;;;;;6.38;3.85;;;;;;;35.86;29.43;100459.03;5097175;28;20048;-76
2023/07/30 12:21:34;;;;;;;4.57;3.90;;;;;;;35.76;29.87;100451.19;5097904;28;20050;-76
2023/07/30 12:24:21;;;;;;;5.13;3.72;;;;;;;35.82;29.69;100450.41;5097786;28;20027;-75
2023/07/30 12:27:07;;;;;;;4.22;3.60;;;;;;;36.56;28.48;100444.31;5097221;28;20024;-76
2023/07/30 12:29:53;;;;;;;4.85;3.72;;;;;;;37.27;28.08;100445.78;5082956;28;20440;-76
2023/07/30 12:32:39;;;;;;;4.32;3.90;;;;;;;37.44;27.47;100445.22;5097767;28;20380;-76
2023/07/30 12:35:25;;;;;;;10.55;4.10;;;;;;;37.39;26.29;100446.88;5098340;28;20020;-77
2023/07/30 12:38:11;;;;;;;4.95;3.88;;;;;;;37.19;27.13;100441.34;5097078;28;20055;-77
2023/07/30 12:40:56;;;;;;;5.00;4.03;;;;;;;37.53;27.09;100441.22;5083683;28;20024;-76
2023/07/30 12:43:42;;;;;;;5.97;3.95;;;;;;;37.13;28.33;100435.84;5098027;28;20064;-76
2023/07/30 12:46:29;;;;;;;5.43;3.58;;;;;;;37.19;27.99;100430.41;5098195;28;20117;-75